Time;durP1;ratioP1;P1;durP2;ratioP2;P2;SDS_P1;SDS_P2;PMS_P1;PMS_P2;Temp;Humidity;BMP_temperature;BMP_pressure;BME280_temperature;BME280_humidity;BME280_pressure;Samples;Min_cycle;Max_cycle;Signal;HPM_P1;HPM_P2
2021/12/01 00:02:01;;;;;;;4.38;2.70;;;;;;;21.24;29.05;99551.03;5068319;28;20135;-61
2021/12/01 00:04:27;;;;;;;4.60;3.22;;;;;;;21.22;29.17;99539.47;5065484;28;20040;-61
2021/12/01 00:06:52;;;;;;;4.28;2.70;;;;;;;21.24;29.09;99537.13;5068348;28;20044;-60
2021/12/01 00:09:18;;;;;;;4.53;3.22;;;;;;;21.24;29.19;99545.47;5067959;28;20441;-60
2021/12/01 00:11:43;;;;;;;3.80;2.63;;;;;;;21.23;29.07;99531.94;5067891;28;20447;-60
2021/12/01 00:14:09;;;;;;;4.22;2.63;;;;;;;21.25;29.11;99535.94;5068432;28;20290;-44
2021/12/01 00:16:34;;;;;;;3.90;2.67;;;;;;;21.27;28.98;99536.34;5068504;28;20041;-44
2021/12/01 00:19:00;;;;;;;4.20;2.75;;;;;;;21.27;29.33;99530.78;5068306;28;20048;-60
2021/12/01 00:21:25;;;;;;;4.05;2.67;;;;;;;21.27;28.97;99533.56;5067940;28;20039;-60
2021/12/01 00:23:51;;;;;;;4.60;2.70;;;;;;;21.29;29.10;99538.78;5067920;28;20045;-60
2021/12/01 00:26:16;;;;;;;3.78;2.55;;;;;;;21.29;28.91;99531.28;5067773;28;20431;-60
2021/12/01 00:28:42;;;;;;;4.03;2.55;;;;;;;21.31;29.20;99530.88;5067842;28;20048;-61
2021/12/01 00:31:07;;;;;;;4.22;2.72;;;;;;;21.30;29.13;99527.31;5067837;28;20523;-60
2021/12/01 00:33:33;;;;;;;4.72;2.88;;;;;;;21.29;29.04;99531.28;5067773;28;20071;-60
2021/12/01 00:35:59;;;;;;;4.15;2.72;;;;;;;21.30;28.92;99527.31;5067609;28;20074;-60
2021/12/01 00:38:26;;;;;;;4.22;2.83;;;;;;;21.30;28.95;99524.53;5067850;28;20413;-62
2021/12/01 00:40:52;;;;;;;4.30;2.83;;;;;;;21.26;29.25;99515.28;5062188;28;20044;-61
2021/12/01 00:43:18;;;;;;;4.55;3.00;;;;;;;21.30;28.96;99516.19;5067933;28;20044;-45
2021/12/01 00:45:50;;;;;;;3.60;2.60;;;;;;;21.31;28.84;99516.97;5067446;28;20041;-44
2021/12/01 00:48:18;;;;;;;4.53;3.00;;;;;;;21.31;29.09;99505.84;5062802;28;20459;-45
2021/12/01 00:50:44;;;;;;;3.72;2.50;;;;;;;21.31;28.97;99501.09;5067611;28;20047;-45
2021/12/01 00:53:11;;;;;;;4.25;2.70;;;;;;;21.31;29.09;99500.28;5067713;28;20120;-46
2021/12/01 00:55:37;;;;;;;4.05;2.83;;;;;;;21.30;29.00;99496.72;5067735;28;20028;-61
2021/12/01 00:58:03;;;;;;;4.45;2.65;;;;;;;21.31;28.93;99498.31;5067869;28;20151;-45
2021/12/01 01:00:31;;;;;;;4.03;2.58;;;;;;;21.29;29.01;99478.41;5062449;28;20052;-44
2021/12/01 01:02:57;;;;;;;4.25;2.67;;;;;;;21.30;29.03;99479.22;5067658;28;20048;-44
2021/12/01 01:05:23;;;;;;;3.90;2.60;;;;;;;21.29;28.85;99472.84;5067550;28;20076;-45
2021/12/01 01:07:49;;;;;;;3.88;2.67;;;;;;;21.29;28.97;99475.63;5068017;28;20079;-43
2021/12/01 01:18:41;;;;;;;3.65;2.50;;;;;;;21.28;28.90;99454.53;5069202;28;20044;-60
2021/12/01 01:21:07;;;;;;;3.65;2.40;;;;;;;21.28;29.05;99457.31;5071274;28;20094;-60
2021/12/01 01:23:35;;;;;;;3.83;2.50;;;;;;;21.29;28.95;99450.59;5070942;28;20056;-60
2021/12/01 01:26:04;;;;;;;3.70;2.45;;;;;;;21.29;29.06;99449.75;5070633;28;20527;-44
2021/12/01 01:28:29;;;;;;;3.47;2.30;;;;;;;21.28;29.18;99448.97;5070624;28;20127;-45
2021/12/01 01:30:55;;;;;;;4.28;2.72;;;;;;;21.27;29.07;99439.00;5070757;28;20123;-46
2021/12/01 01:33:22;;;;;;;3.47;2.35;;;;;;;21.28;29.17;99437.84;5070990;28;20040;-44
2021/12/01 01:35:48;;;;;;;3.38;2.30;;;;;;;21.28;28.94;99440.63;5068725;28;20040;-45
2021/12/01 01:38:13;;;;;;;3.75;2.50;;;;;;;21.27;28.99;99436.22;5070819;28;20044;-46
2021/12/01 01:40:39;;;;;;;4.00;2.50;;;;;;;21.29;28.92;99435.84;5070736;28;20064;-59
2021/12/01 01:43:06;;;;;;;3.45;2.30;;;;;;;21.28;29.02;99439.81;5070538;28;20074;-62
2021/12/01 01:45:32;;;;;;;3.00;2.00;;;;;;;21.28;28.88;99435.06;5065215;28;20055;-61
2021/12/01 01:48:05;;;;;;;3.40;2.25;;;;;;;21.28;28.88;99428.69;5070116;28;20044;-61
2021/12/01 01:50:36;;;;;;;3.45;2.13;;;;;;;21.29;28.87;99424.72;5070443;28;20047;-61
2021/12/01 01:53:10;;;;;;;3.28;2.00;;;;;;;21.27;29.12;99411.16;5070718;28;20080;-60
2021/12/01 01:55:39;;;;;;;3.55;2.17;;;;;;;21.29;28.83;99408.88;5065424;28;20044;-59
2021/12/01 01:58:05;;;;;;;3.60;2.50;;;;;;;21.28;28.81;99404.44;5070425;28;20101;-60
2021/12/01 02:00:33;;;;;;;2.47;1.42;;;;;;;21.30;29.08;99402.13;5070171;28;20048;-59
2021/12/01 02:02:59;;;;;;;3.05;1.90;;;;;;;21.28;29.03;99395.31;5070509;28;20048;-61
2021/12/01 02:05:25;;;;;;;2.63;1.60;;;;;;;21.30;28.87;99388.22;5070458;28;20105;-60
2021/12/01 02:07:52;;;;;;;2.90;1.95;;;;;;;21.32;28.87;99390.59;5070134;28;20032;-60
2021/12/01 02:10:18;;;;;;;2.80;1.77;;;;;;;21.33;28.82;99386.63;5070125;28;20041;-60
2021/12/01 02:12:44;;;;;;;2.83;1.80;;;;;;;21.32;28.80;99391.41;5069931;28;20174;-60
2021/12/01 02:15:09;;;;;;;2.90;1.90;;;;;;;21.33;29.02;99386.63;5070101;28;20508;-61
2021/12/01 02:17:36;;;;;;;3.03;1.80;;;;;;;21.33;28.95;99387.44;5070274;28;20075;-60
2021/12/01 02:20:10;;;;;;;2.70;1.65;;;;;;;21.33;29.02;99393.00;5069750;28;20041;-60
2021/12/01 02:22:35;;;;;;;2.83;1.77;;;;;;;21.30;29.12;99382.63;5067820;28;20052;-59
2021/12/01 02:25:01;;;;;;;2.70;1.80;;;;;;;21.33;29.09;99386.63;5051793;28;20047;-60
2021/12/01 02:27:26;;;;;;;2.95;1.80;;;;;;;21.33;28.90;99381.06;5067774;28;20568;-60
2021/12/01 02:29:52;;;;;;;2.83;1.80;;;;;;;21.33;29.01;99376.31;5069559;28;20049;-60
2021/12/01 02:32:17;;;;;;;2.40;1.60;;;;;;;21.33;29.00;99367.97;5069782;28;20506;-58
2021/12/01 02:34:44;;;;;;;2.90;1.80;;;;;;;21.31;29.11;99364.75;5069833;28;20040;-61
2021/12/01 02:37:10;;;;;;;2.60;1.70;;;;;;;21.32;28.87;99363.59;5069951;28;20048;-60
2021/12/01 02:39:38;;;;;;;2.90;2.00;;;;;;;21.29;29.00;99347.66;5069917;28;20075;-61
2021/12/01 02:42:06;;;;;;;2.60;1.67;;;;;;;21.29;28.93;99346.81;5069859;28;20052;-59
2021/12/01 02:44:32;;;;;;;3.47;1.70;;;;;;;21.29;28.95;99341.25;5069788;28;20415;-60
2021/12/01 02:47:00;;;;;;;2.85;1.70;;;;;;;21.28;28.86;99334.91;5069660;28;20049;-60
2021/12/01 02:49:26;;;;;;;2.72;1.60;;;;;;;21.30;29.04;99340.13;5069194;28;20131;-61
2021/12/01 02:51:54;;;;;;;2.35;1.52;;;;;;;21.29;28.97;99336.53;5069517;28;20118;-60
2021/12/01 02:54:20;;;;;;;2.30;1.45;;;;;;;21.29;29.11;99328.19;5069586;28;20489;-61
2021/12/01 02:56:49;;;;;;;2.45;1.60;;;;;;;21.27;28.90;99311.03;5069640;28;20080;-61
2021/12/01 02:59:16;;;;;;;2.70;1.60;;;;;;;21.29;28.92;99317.06;5064308;28;20131;-61
2021/12/01 03:01:42;;;;;;;2.60;1.60;;;;;;;21.30;28.96;99318.66;5069189;28;20131;-61
2021/12/01 03:04:08;;;;;;;2.67;1.67;;;;;;;21.29;28.96;99313.44;5069429;28;20131;-62
2021/12/01 03:06:35;;;;;;;3.08;2.03;;;;;;;21.28;29.16;99317.41;5066644;28;20033;-61
2021/12/01 03:09:03;;;;;;;2.83;1.70;;;;;;;21.29;29.04;99313.44;5069126;28;20135;-61
2021/12/01 03:11:29;;;;;;;2.63;1.58;;;;;;;21.30;28.99;99324.22;5069275;28;20495;-62
2021/12/01 03:13:54;;;;;;;3.20;1.88;;;;;;;21.27;28.99;99316.59;5069031;28;20037;-48
2021/12/01 03:16:20;;;;;;;2.80;1.60;;;;;;;21.30;28.97;99317.84;5069292;28;20046;-46
2021/12/01 03:18:46;;;;;;;2.60;1.60;;;;;;;21.29;28.84;99310.66;5069401;28;20119;-46
2021/12/01 03:21:12;;;;;;;2.90;1.80;;;;;;;21.29;28.85;99305.94;5069175;28;20072;-46
2021/12/01 03:23:38;;;;;;;3.15;1.63;;;;;;;21.27;29.03;99302.69;5068930;28;20040;-45
2021/12/01 03:26:04;;;;;;;3.03;1.60;;;;;;;21.29;29.03;99296.75;5049388;28;20481;-45
2021/12/01 03:28:30;;;;;;;2.88;1.85;;;;;;;21.28;28.96;99290.38;5068959;28;20547;-46
2021/12/01 03:30:56;;;;;;;2.53;1.73;;;;;;;21.28;29.04;99289.59;5068175;28;20044;-45
2021/12/01 03:33:23;;;;;;;3.08;1.80;;;;;;;21.29;29.04;99285.63;5069006;28;20043;-45
2021/12/01 03:35:51;;;;;;;2.50;1.48;;;;;;;21.28;29.04;99276.47;5068543;28;20412;-45
2021/12/01 03:38:18;;;;;;;2.95;1.70;;;;;;;21.29;28.91;99278.13;5063840;28;20072;-45
2021/12/01 03:40:44;;;;;;;2.72;1.67;;;;;;;21.28;28.92;99276.47;5069220;28;20044;-45
2021/12/01 03:43:09;;;;;;;2.92;1.60;;;;;;;21.30;28.98;99270.56;5049967;28;20053;-46
2021/12/01 03:45:35;;;;;;;2.55;1.65;;;;;;;21.30;28.71;99265.78;5068828;28;20036;-61
2021/12/01 03:48:01;;;;;;;2.78;1.77;;;;;;;21.29;28.84;99261.41;5068632;28;20052;-61
2021/12/01 03:50:30;;;;;;;2.92;1.80;;;;;;;21.31;28.86;99261.03;5068622;28;20045;-61
2021/12/01 03:52:55;;;;;;;2.80;1.88;;;;;;;21.31;29.09;99258.25;5063371;28;20102;-61
2021/12/01 03:55:21;;;;;;;2.30;1.50;;;;;;;21.31;28.82;99259.03;5068613;28;20037;-60
2021/12/01 03:57:46;;;;;;;2.50;1.63;;;;;;;21.30;28.92;99259.44;5068583;28;20135;-60
2021/12/01 04:00:14;;;;;;;3.42;1.83;;;;;;;21.30;28.94;99260.22;5060365;28;20131;-61
2021/12/01 04:02:40;;;;;;;2.83;1.60;;;;;;;21.29;28.94;99249.47;5068460;28;20049;-60
2021/12/01 04:05:10;;;;;;;3.15;1.80;;;;;;;21.28;28.75;99243.09;5068305;28;20412;-61
2021/12/01 04:07:35;;;;;;;3.40;1.90;;;;;;;21.28;28.79;99240.31;5062962;28;20079;-60
2021/12/01 04:10:03;;;;;;;2.55;1.70;;;;;;;21.28;28.79;99226.41;5068025;28;20504;-60
2021/12/01 04:12:29;;;;;;;2.88;1.80;;;;;;;21.27;29.07;99221.22;5068318;28;20028;-60
2021/12/01 04:14:54;;;;;;;2.83;1.85;;;;;;;21.25;28.89;99227.16;5068474;28;20058;-61
2021/12/01 04:17:20;;;;;;;3.10;1.90;;;;;;;21.26;28.86;99217.63;5068216;28;20048;-61
2021/12/01 04:19:46;;;;;;;2.95;1.90;;;;;;;21.25;28.95;99210.47;5067481;28;20079;-60
2021/12/01 04:22:12;;;;;;;3.00;1.60;;;;;;;21.25;28.89;99213.25;5067911;28;20044;-60
2021/12/01 04:24:37;;;;;;;2.40;1.60;;;;;;;21.25;28.77;99204.91;5068257;28;20037;-61
2021/12/01 04:27:03;;;;;;;3.10;1.70;;;;;;;21.25;28.95;99201.31;5068319;28;20056;-61
2021/12/01 04:29:29;;;;;;;2.60;1.70;;;;;;;21.25;28.78;99196.56;5068152;28;20042;-61
2021/12/01 04:31:54;;;;;;;2.80;1.60;;;;;;;21.24;29.02;99194.97;5068072;28;20091;-60
2021/12/01 04:34:20;;;;;;;3.00;1.90;;;;;;;21.23;29.03;99193.38;5067987;28;20055;-60
2021/12/01 04:36:48;;;;;;;3.10;1.65;;;;;;;21.23;29.07;99196.16;5067825;28;20132;-60
2021/12/01 04:39:15;;;;;;;2.90;1.80;;;;;;;21.23;29.00;99190.59;5067903;28;20045;-61
2021/12/01 04:41:50;;;;;;;2.75;1.60;;;;;;;21.25;28.86;99179.06;5068359;28;20045;-60
2021/12/01 04:44:16;;;;;;;3.10;1.77;;;;;;;21.25;28.90;99174.31;5066340;28;20127;-60
2021/12/01 04:46:46;;;;;;;2.92;1.70;;;;;;;21.26;28.77;99175.09;5071188;28;20403;-60
2021/12/01 04:49:17;;;;;;;3.10;1.73;;;;;;;21.24;29.11;99172.72;5071077;28;20048;-61
2021/12/01 04:51:46;;;;;;;2.40;1.50;;;;;;;21.25;28.87;99173.50;5071359;28;20424;-62
2021/12/01 04:54:12;;;;;;;2.40;1.50;;;;;;;21.25;28.66;99160.41;5070866;28;20449;-61
2021/12/01 04:56:38;;;;;;;2.72;1.63;;;;;;;21.24;28.80;99156.03;5071416;28;20428;-59
2021/12/01 04:59:06;;;;;;;2.78;1.50;;;;;;;21.24;28.72;99150.47;5070501;28;20040;-59
2021/12/01 05:01:35;;;;;;;2.42;1.48;;;;;;;21.22;28.87;99135.31;5071122;28;20040;-60
2021/12/01 05:04:01;;;;;;;2.60;1.60;;;;;;;21.27;28.92;99148.88;5071277;28;20504;-60
2021/12/01 05:06:28;;;;;;;2.47;1.55;;;;;;;21.27;28.75;99137.75;5071262;28;20046;-60
2021/12/01 05:08:53;;;;;;;2.10;1.25;;;;;;;21.25;29.02;99135.38;5070877;28;20068;-60
2021/12/01 05:11:19;;;;;;;2.60;1.50;;;;;;;21.26;28.76;99139.75;5071165;28;20075;-60
2021/12/01 05:13:44;;;;;;;2.50;1.50;;;;;;;21.27;28.75;99143.31;5070553;28;20055;-60
2021/12/01 05:16:10;;;;;;;2.13;1.17;;;;;;;21.26;28.64;99134.19;5070898;28;20471;-60
2021/12/01 05:18:35;;;;;;;2.30;1.50;;;;;;;21.27;28.75;99127.41;5070989;28;20119;-60
2021/12/01 05:21:01;;;;;;;2.47;1.40;;;;;;;21.27;28.67;99133.00;5069357;28;20139;-59
2021/12/01 05:23:26;;;;;;;2.53;1.40;;;;;;;21.23;28.97;99132.19;5070745;28;20040;-60
2021/12/01 05:25:52;;;;;;;2.50;1.50;;;;;;;21.26;29.10;99120.25;5070421;28;20072;-59
2021/12/01 05:28:17;;;;;;;2.35;1.42;;;;;;;21.25;28.91;99127.00;5070780;28;20430;-59
2021/12/01 05:30:45;;;;;;;1.88;1.27;;;;;;;21.25;28.91;99118.66;5070664;28;20041;-59
2021/12/01 05:33:11;;;;;;;2.50;1.40;;;;;;;21.26;28.77;99119.47;5070670;28;20048;-60
2021/12/01 05:35:37;;;;;;;2.38;1.52;;;;;;;21.25;29.00;99124.22;5065207;28;20090;-60
2021/12/01 05:38:04;;;;;;;2.33;1.48;;;;;;;21.24;28.77;99131.00;5070465;28;20091;-60
2021/12/01 05:40:31;;;;;;;2.60;1.50;;;;;;;21.25;29.03;99131.78;5070737;28;20044;-60
2021/12/01 05:42:56;;;;;;;2.80;1.48;;;;;;;21.24;28.86;99132.97;5070775;28;20089;-60
2021/12/01 05:45:22;;;;;;;2.53;1.40;;;;;;;21.25;28.82;99132.56;5071061;28;20048;-60
2021/12/01 05:47:47;;;;;;;2.42;1.50;;;;;;;21.25;28.89;99121.44;5070684;28;20170;-60
2021/12/01 05:50:13;;;;;;;2.70;1.70;;;;;;;21.25;28.81;99129.00;5070708;28;20052;-60
2021/12/01 05:52:38;;;;;;;2.95;1.75;;;;;;;21.26;28.88;99136.97;5071034;28;20040;-45
2021/12/01 05:55:05;;;;;;;2.90;1.75;;;;;;;21.26;29.25;99136.97;5069706;28;20061;-45
2021/12/01 05:57:30;;;;;;;2.83;1.90;;;;;;;21.26;28.86;99133.38;5070460;28;20047;-44
2021/12/01 05:59:56;;;;;;;2.60;1.52;;;;;;;21.28;29.00;99145.75;5070112;28;20045;-45
2021/12/01 06:02:21;;;;;;;2.72;1.80;;;;;;;21.29;28.80;99136.22;5049309;28;20435;-45
2021/12/01 06:04:48;;;;;;;2.55;1.60;;;;;;;21.30;28.91;99137.81;5070269;28;20535;-45
2021/12/01 06:07:14;;;;;;;2.45;1.60;;;;;;;21.32;28.87;99138.22;5070479;28;20040;-45
2021/12/01 06:09:39;;;;;;;2.72;1.60;;;;;;;21.32;28.75;99146.59;5069974;28;20133;-45
2021/12/01 06:12:06;;;;;;;2.70;1.90;;;;;;;21.33;28.74;99144.59;5070151;28;20079;-47
2021/12/01 06:14:33;;;;;;;2.50;1.60;;;;;;;21.33;28.71;99136.25;5070053;28;20044;-45
2021/12/01 06:16:59;;;;;;;2.60;1.65;;;;;;;21.35;28.76;99140.22;5067487;28;20051;-45
2021/12/01 06:19:24;;;;;;;2.35;1.42;;;;;;;21.35;28.68;99131.09;5070150;28;20517;-44
2021/12/01 06:21:50;;;;;;;3.13;1.80;;;;;;;21.35;28.68;99122.75;5070049;28;20115;-44
2021/12/01 06:24:15;;;;;;;2.67;1.50;;;;;;;21.37;28.82;99114.84;5069577;28;20032;-46
2021/12/01 06:26:41;;;;;;;2.00;1.40;;;;;;;21.37;28.67;99123.97;5069958;28;20408;-45
2021/12/01 06:29:06;;;;;;;3.17;1.65;;;;;;;21.36;28.65;99111.25;5069817;28;20056;-45
2021/12/01 06:31:32;;;;;;;3.00;1.77;;;;;;;21.37;28.49;99103.72;5069928;28;20443;-44
2021/12/01 06:33:58;;;;;;;2.72;1.73;;;;;;;21.38;28.88;99099.72;5069750;28;20082;-45
2021/12/01 06:36:24;;;;;;;2.40;1.50;;;;;;;21.39;28.87;99099.34;5069589;28;20115;-45
2021/12/01 06:38:50;;;;;;;2.80;1.60;;;;;;;21.38;28.97;99089.41;5069549;28;20040;-44
2021/12/01 06:41:16;;;;;;;2.60;1.50;;;;;;;21.41;28.80;99093.38;5069506;28;20241;-44
2021/12/01 06:43:41;;;;;;;3.00;1.60;;;;;;;21.42;28.83;99097.75;5069812;28;20048;-57
2021/12/01 06:46:07;;;;;;;12.95;1.67;;;;;;;21.42;28.88;99098.56;5069479;28;20408;-45
2021/12/01 06:48:32;;;;;;;8.13;1.73;;;;;;;21.42;28.84;99103.31;5069421;28;20436;-45
2021/12/01 06:50:57;;;;;;;3.47;1.75;;;;;;;21.42;28.63;99101.34;5069288;28;20382;-45
2021/12/01 06:53:23;;;;;;;2.75;1.55;;;;;;;21.45;28.79;99101.78;5069745;28;20045;-44
2021/12/01 06:55:48;;;;;;;2.35;1.55;;;;;;;21.44;28.52;99098.19;5069617;28;20056;-61
2021/12/01 06:58:14;;;;;;;3.95;1.50;;;;;;;21.44;28.55;99103.75;5069539;28;20151;-61
2021/12/01 07:00:39;;;;;;;2.72;1.50;;;;;;;21.41;28.49;99094.19;5066038;28;20052;-61
2021/12/01 07:03:04;;;;;;;5.22;1.60;;;;;;;21.43;28.74;99086.25;5069205;28;20051;-61
2021/12/01 07:05:30;;;;;;;2.83;1.65;;;;;;;21.43;28.59;99091.84;5068099;28;20659;-60
2021/12/01 07:07:56;;;;;;;2.85;1.70;;;;;;;21.43;28.62;99093.78;5069117;28;20040;-62
2021/12/01 07:10:22;;;;;;;2.95;1.65;;;;;;;21.43;28.76;99093.78;5068975;28;20044;-61
2021/12/01 07:12:48;;;;;;;2.58;1.63;;;;;;;21.43;28.69;99086.25;5069003;28;20041;-62
2021/12/01 07:15:13;;;;;;;2.90;1.80;;;;;;;21.44;28.67;99089.84;5069155;28;20044;-59
2021/12/01 07:17:40;;;;;;;3.15;1.70;;;;;;;21.42;28.62;99081.84;5069051;28;20454;-60
2021/12/01 07:20:07;;;;;;;2.55;1.63;;;;;;;21.43;28.60;99091.00;5069352;28;20128;-61
2021/12/01 07:22:32;;;;;;;3.22;1.83;;;;;;;21.45;28.60;99097.00;5069160;28;20045;-61
2021/12/01 07:24:58;;;;;;;2.85;1.70;;;;;;;21.42;28.73;99090.22;5068549;28;20041;-60
2021/12/01 07:27:23;;;;;;;2.65;1.67;;;;;;;21.43;28.79;99091.84;5069189;28;20404;-60
2021/12/01 07:29:49;;;;;;;3.33;1.88;;;;;;;21.41;28.69;99088.63;5068661;28;20206;-61
2021/12/01 07:32:14;;;;;;;2.67;1.77;;;;;;;21.43;28.77;99088.22;5068916;28;20037;-62
2021/12/01 07:34:41;;;;;;;2.65;1.83;;;;;;;21.43;28.79;99079.88;5069001;28;20129;-61
2021/12/01 07:37:11;;;;;;;3.42;2.17;;;;;;;21.42;28.64;99076.28;5050645;28;20052;-61
2021/12/01 07:39:37;;;;;;;2.97;2.00;;;;;;;21.42;28.66;99075.50;5068466;28;20044;-60
2021/12/01 07:42:04;;;;;;;3.78;1.95;;;;;;;21.43;28.45;99074.31;5068927;28;20089;-60
2021/12/01 07:44:29;;;;;;;3.42;1.90;;;;;;;21.42;28.62;99073.50;5068173;28;20519;-61
2021/12/01 07:46:55;;;;;;;3.25;2.20;;;;;;;21.43;28.70;99065.97;5062818;28;20041;-60
2021/12/01 07:49:20;;;;;;;4.45;2.17;;;;;;;21.43;28.52;99066.78;5062354;28;20040;-60
2021/12/01 07:51:45;;;;;;;3.75;2.35;;;;;;;21.43;28.48;99061.22;5067789;28;20119;-58
2021/12/01 07:54:11;;;;;;;4.20;2.47;;;;;;;21.46;28.34;99061.63;5065432;28;20401;-58
2021/12/01 07:56:37;;;;;;;4.47;2.33;;;;;;;21.48;28.23;99048.13;5062329;28;20124;-57
2021/12/01 07:59:03;;;;;;;3.78;2.42;;;;;;;21.52;28.27;99040.59;5060228;28;20076;-45
2021/12/01 08:01:28;;;;;;;4.25;2.63;;;;;;;21.54;28.15;99035.44;5064700;28;20113;-45
2021/12/01 08:03:54;;;;;;;3.58;2.38;;;;;;;21.57;28.16;99006.81;5063462;28;21414;-44
2021/12/01 08:06:20;;;;;;;4.35;2.70;;;;;;;21.60;27.78;99017.19;5064458;28;20048;-46
2021/12/01 08:08:45;;;;;;;4.72;2.78;;;;;;;21.58;28.06;99016.78;5060032;28;20060;-45
2021/12/01 08:11:11;;;;;;;3.63;2.72;;;;;;;21.60;27.83;99012.41;5063448;28;20048;-44
2021/12/01 08:13:36;;;;;;;4.43;2.65;;;;;;;21.60;27.98;99012.41;5060504;28;20052;-58
2021/12/01 08:16:02;;;;;;;4.18;2.60;;;;;;;21.63;28.02;99017.19;5064981;28;20128;-58
2021/12/01 08:18:28;;;;;;;4.78;2.63;;;;;;;21.64;27.95;99018.78;5065295;28;20052;-58
2021/12/01 08:20:53;;;;;;;3.72;2.67;;;;;;;21.68;28.00;99007.69;5062852;28;20040;-56
2021/12/01 08:23:19;;;;;;;3.13;2.17;;;;;;;21.74;27.98;99013.69;5059850;28;20040;-58
2021/12/01 08:25:44;;;;;;;4.50;2.45;;;;;;;21.75;28.23;99004.94;5065064;28;20149;-58
2021/12/01 08:28:09;;;;;;;5.88;2.55;;;;;;;21.77;28.15;98991.41;5054600;28;20094;-59
2021/12/01 08:30:36;;;;;;;3.80;2.60;;;;;;;21.79;27.89;98977.91;5058634;28;20077;-57
2021/12/01 08:33:02;;;;;;;4.32;2.75;;;;;;;21.81;27.88;98986.66;5059183;28;20508;-57
2021/12/01 08:35:27;;;;;;;5.75;2.67;;;;;;;21.82;28.09;98973.53;5059112;28;20044;-57
2021/12/01 08:37:53;;;;;;;4.22;2.70;;;;;;;21.81;28.08;98967.19;5057029;28;20105;-57
2021/12/01 08:40:19;;;;;;;7.00;2.50;;;;;;;21.79;28.01;98958.44;5057932;28;20123;-58
2021/12/01 08:42:46;;;;;;;4.43;2.90;;;;;;;21.79;28.10;98960.38;5051301;28;20040;-58
2021/12/01 08:45:11;;;;;;;4.50;2.60;;;;;;;21.79;28.13;98960.38;5042857;28;20558;-57
2021/12/01 08:47:37;;;;;;;4.55;3.22;;;;;;;21.78;28.15;98965.16;5065866;28;20076;-57
2021/12/01 08:50:05;;;;;;;4.38;2.83;;;;;;;21.78;27.94;98962.38;5063123;28;20045;-57
2021/12/01 08:52:31;;;;;;;4.25;2.83;;;;;;;21.78;28.20;98956.81;5062680;28;20045;-58
2021/12/01 08:54:57;;;;;;;4.68;2.78;;;;;;;21.76;27.95;98961.97;5063528;28;20099;-58
2021/12/01 08:57:22;;;;;;;4.38;2.90;;;;;;;21.78;28.29;98967.94;5061560;28;20052;-58
2021/12/01 08:59:49;;;;;;;4.93;2.42;;;;;;;21.77;28.56;98962.78;5056132;28;20056;-60
2021/12/01 09:02:14;;;;;;;4.80;2.67;;;;;;;21.74;28.72;98950.44;5065182;28;20092;-59
2021/12/01 09:04:40;;;;;;;6.85;3.25;;;;;;;21.73;28.49;98948.84;5062028;28;20037;-57
2021/12/01 09:07:05;;;;;;;4.05;2.63;;;;;;;21.74;28.54;98952.44;5059206;28;20040;-59
2021/12/01 09:09:31;;;;;;;7.75;2.92;;;;;;;21.72;28.82;98952.84;5064388;28;20520;-58
2021/12/01 09:11:56;;;;;;;3.88;2.58;;;;;;;21.72;29.05;98933.34;5064619;28;20072;-59
2021/12/01 09:14:23;;;;;;;9.27;2.72;;;;;;;21.72;29.01;98925.00;5066211;28;20060;-61
2021/12/01 09:16:51;;;;;;;5.18;3.15;;;;;;;21.68;29.64;98929.75;5059115;28;20098;-62
2021/12/01 09:19:17;;;;;;;3.63;2.78;;;;;;;21.66;30.13;98918.22;5056233;28;20044;-60
2021/12/01 09:21:42;;;;;;;4.55;2.78;;;;;;;21.69;29.80;98911.84;5063500;28;20131;-58
2021/12/01 09:24:08;;;;;;;5.28;2.70;;;;;;;21.71;29.95;98917.81;5063250;28;20043;-60
2021/12/01 09:26:33;;;;;;;4.35;3.05;;;;;;;21.70;30.07;98910.66;5060458;28;20041;-58
2021/12/01 09:28:59;;;;;;;3.88;2.80;;;;;;;21.72;30.19;98908.28;5041049;28;20128;-60
2021/12/01 09:31:25;;;;;;;4.70;2.72;;;;;;;21.73;30.12;98906.31;5064096;28;20041;-60
2021/12/01 09:33:50;;;;;;;5.25;2.40;;;;;;;21.74;29.99;98905.13;5068650;28;20048;-59
2021/12/01 09:36:16;;;;;;;5.35;2.97;;;;;;;21.75;29.46;98896.38;5068306;28;20037;-61
2021/12/01 09:38:42;;;;;;;5.10;2.90;;;;;;;21.78;29.53;98884.44;5065054;28;20049;-60
2021/12/01 09:41:08;;;;;;;4.72;2.95;;;;;;;21.83;29.33;98875.69;5069581;28;20384;-60
2021/12/01 09:43:34;;;;;;;4.75;3.17;;;;;;;21.86;28.74;98874.94;5067575;28;20052;-61
2021/12/01 09:46:03;;;;;;;4.13;2.92;;;;;;;21.89;28.85;98862.97;5066243;28;20055;-60
2021/12/01 09:48:30;;;;;;;4.80;3.13;;;;;;;21.89;28.79;98849.06;5066641;28;20053;-58
2021/12/01 09:50:57;;;;;;;7.80;3.08;;;;;;;21.88;28.59;98841.91;5068432;28;20063;-59
2021/12/01 09:53:22;;;;;;;4.65;3.05;;;;;;;21.86;28.93;98835.94;5046417;28;20436;-60
2021/12/01 09:55:47;;;;;;;5.93;2.75;;;;;;;21.89;29.17;98835.13;5067876;28;20052;-60
2021/12/01 09:58:19;;;;;;;4.20;2.95;;;;;;;21.88;29.03;98821.63;5057733;28;20404;-61
2021/12/01 10:00:54;;;;;;;4.95;2.78;;;;;;;21.88;29.02;98805.72;5061670;28;20060;-60
2021/12/01 10:03:20;;;;;;;4.80;2.80;;;;;;;21.92;29.68;98800.94;5050010;28;20040;-63
2021/12/01 10:05:46;;;;;;;6.25;3.05;;;;;;;21.95;29.21;98794.56;5064934;28;20082;-56
2021/12/01 10:08:22;;;;;;;4.55;2.72;;;;;;;21.92;29.62;98789.78;5068293;28;20131;-60
2021/12/01 10:10:48;;;;;;;6.50;2.80;;;;;;;21.92;29.56;98787.00;5060454;28;20052;-60
2021/12/01 10:13:21;;;;;;;4.43;2.70;;;;;;;21.91;29.33;98784.63;5064362;28;20143;-60
2021/12/01 10:15:47;;;;;;;4.60;2.90;;;;;;;21.86;29.66;98777.47;5065256;28;20519;-45
2021/12/01 10:18:16;;;;;;;7.15;2.97;;;;;;;21.83;29.62;98769.91;5039471;28;20037;-46
2021/12/01 10:20:45;;;;;;;4.90;2.60;;;;;;;21.82;29.35;98764.75;5062640;28;20083;-46
2021/12/01 10:23:14;;;;;;;4.10;2.72;;;;;;;21.78;29.30;98756.38;5063859;28;20068;-46
2021/12/01 10:25:41;;;;;;;4.35;2.63;;;;;;;21.76;29.59;98753.19;5056736;28;20041;-44
2021/12/01 10:28:06;;;;;;;4.70;2.63;;;;;;;21.74;29.39;98754.81;5039933;28;20525;-45
2021/12/01 10:30:39;;;;;;;4.50;2.42;;;;;;;21.70;29.40;98754.78;5046495;28;20063;-58
2021/12/01 10:33:07;;;;;;;4.35;2.70;;;;;;;21.69;29.29;98736.50;5063268;28;20108;-60
2021/12/01 10:35:34;;;;;;;4.43;2.60;;;;;;;21.67;29.45;98730.53;5063679;28;20045;-60
2021/12/01 10:37:59;;;;;;;5.93;2.50;;;;;;;21.63;29.48;98727.75;5060994;28;20044;-58
2021/12/01 10:40:25;;;;;;;3.63;2.38;;;;;;;21.61;29.45;98715.44;5061510;28;20401;-58
2021/12/01 10:42:56;;;;;;;4.57;3.13;;;;;;;21.59;29.41;98717.81;5055031;28;20315;-60
2021/12/01 10:45:24;;;;;;;3.92;2.50;;;;;;;21.58;29.73;98707.88;5064931;28;20041;-60
2021/12/01 10:47:50;;;;;;;4.63;2.70;;;;;;;21.56;29.69;98690.78;5068929;28;20158;-59
2021/12/01 10:50:20;;;;;;;4.38;2.70;;;;;;;21.54;29.80;98695.94;5068783;28;20404;-60
2021/12/01 10:53:04;;;;;;;4.32;2.83;;;;;;;21.52;29.80;98679.66;5067720;28;20037;-59
2021/12/01 10:55:31;;;;;;;3.97;2.67;;;;;;;21.49;29.72;98679.63;5063762;28;20044;-59
2021/12/01 10:58:06;;;;;;;4.93;3.17;;;;;;;21.46;29.83;98670.09;5067871;28;20036;-59
2021/12/01 11:00:39;;;;;;;4.65;3.05;;;;;;;21.48;29.77;98661.34;5063865;28;20048;-60
2021/12/01 11:03:16;;;;;;;4.10;2.95;;;;;;;21.46;29.95;98655.41;5062601;28;20044;-47
2021/12/01 11:05:50;;;;;;;5.13;3.17;;;;;;;21.43;29.87;98646.66;5068464;28;20064;-45
2021/12/01 11:08:29;;;;;;;4.85;3.30;;;;;;;21.44;29.81;98647.47;5067397;28;20032;-44
2021/12/01 11:10:56;;;;;;;4.70;2.97;;;;;;;21.42;29.99;98627.56;5063982;28;20048;-44
2021/12/01 11:13:23;;;;;;;4.75;3.38;;;;;;;21.40;29.69;98625.19;5067358;28;20047;-44
2021/12/01 11:15:54;;;;;;;4.38;3.08;;;;;;;21.38;30.18;98616.47;5066027;28;20090;-45
2021/12/01 11:18:22;;;;;;;5.70;3.30;;;;;;;21.38;29.92;98613.66;5068166;28;20083;-44
2021/12/01 11:20:50;;;;;;;5.05;3.53;;;;;;;21.36;29.97;98602.16;5063105;28;20071;-45
2021/12/01 11:23:23;;;;;;;4.30;2.90;;;;;;;21.38;30.16;98605.31;5068318;28;20044;-44
2021/12/01 11:25:56;;;;;;;;;;;;;;;21.41;29.96;98587.03;5063576;28;20037;-45
2021/12/01 11:28:25;;;;;;;4.25;2.80;;;;;;;21.37;29.91;98586.25;5068419;28;20218;-46
2021/12/01 11:30:54;;;;;;;5.18;3.55;;;;;;;21.36;30.09;98585.47;5063457;28;20045;-43
2021/12/01 11:33:21;;;;;;;4.43;2.78;;;;;;;21.35;30.27;98569.94;5061374;28;20131;-43
2021/12/01 11:35:49;;;;;;;5.22;3.35;;;;;;;21.33;30.44;98580.69;5064408;28;20079;-43
2021/12/01 11:38:16;;;;;;;5.13;3.45;;;;;;;21.34;30.38;98576.69;5067590;28;20411;-45
2021/12/01 11:40:42;;;;;;;5.82;3.28;;;;;;;21.35;30.34;98569.16;5065305;28;20044;-44